createdAt,value
2023-05-02T00:02:16.635Z,13.56
2023-05-02T00:04:43.503Z,13.56
2023-05-02T00:07:11.281Z,13.61
2023-05-02T00:09:38.255Z,13.52
2023-05-02T00:12:04.878Z,13.41
2023-05-02T00:14:39.110Z,13.31
2023-05-02T00:17:05.711Z,13.32
2023-05-02T00:19:32.324Z,13.43
2023-05-02T00:21:58.884Z,13.29
2023-05-02T00:24:26.885Z,13.33
2023-05-02T00:26:53.474Z,13.37
2023-05-02T00:29:19.964Z,13.46
2023-05-02T00:31:46.572Z,13.26
2023-05-02T00:34:13.062Z,13.25
2023-05-02T00:36:39.811Z,13.28
2023-05-02T00:39:06.384Z,13.32
2023-05-02T00:41:32.902Z,13.22
2023-05-02T00:43:59.596Z,13.13
2023-05-02T00:46:26.358Z,13.08
2023-05-02T00:48:53.154Z,13.06
2023-05-02T00:51:19.777Z,13.03
2023-05-02T00:53:46.473Z,13.13
2023-05-02T00:56:12.972Z,12.85
2023-05-02T00:58:41.389Z,12.97
2023-05-02T01:01:38.119Z,13.16
2023-05-02T01:04:19.687Z,13.15
2023-05-02T01:07:14.706Z,13.13
2023-05-02T01:09:53.882Z,13.11
2023-05-02T01:12:41.744Z,13.20
2023-05-02T01:15:12.391Z,13.19
2023-05-02T01:17:40.321Z,13.16
2023-05-02T01:20:12.232Z,12.99
2023-05-02T01:22:41.427Z,12.91
2023-05-02T01:25:17.020Z,12.92
2023-05-02T01:28:08.465Z,12.94
2023-05-02T01:30:37.800Z,12.85
2023-05-02T01:33:06.202Z,12.89
2023-05-02T01:35:35.220Z,12.65
2023-05-02T01:38:03.470Z,12.54
2023-05-02T01:40:30.637Z,12.50
2023-05-02T01:42:59.087Z,12.45
2023-05-02T01:45:26.439Z,12.56
2023-05-02T01:47:54.832Z,12.67
2023-05-02T01:50:25.189Z,12.50
2023-05-02T01:52:54.092Z,12.46
2023-05-02T01:55:21.445Z,12.67
2023-05-02T01:57:50.738Z,12.75
2023-05-02T02:00:18.769Z,12.67
2023-05-02T02:02:47.683Z,12.60
2023-05-02T02:05:15.255Z,12.58
2023-05-02T02:07:43.655Z,12.59
2023-05-02T02:10:10.417Z,12.73
2023-05-02T02:12:43.920Z,12.82
2023-05-02T02:15:19.675Z,12.88
2023-05-02T02:17:50.485Z,12.89
2023-05-02T02:20:18.828Z,12.79
2023-05-02T02:22:46.557Z,12.49
2023-05-02T02:25:16.132Z,12.60
2023-05-02T02:27:43.744Z,12.50
2023-05-02T02:30:11.148Z,12.47
2023-05-02T02:32:37.888Z,12.41
2023-05-02T02:35:05.463Z,12.27
2023-05-02T02:37:59.472Z,12.27
2023-05-02T02:40:34.644Z,12.38
2023-05-02T02:43:04.389Z,12.44
2023-05-02T02:45:40.268Z,12.40
2023-05-02T02:48:09.682Z,12.46
2023-05-02T02:51:00.917Z,12.39
2023-05-02T02:53:45.847Z,12.28
2023-05-02T02:56:17.058Z,12.27
2023-05-02T02:58:51.171Z,12.14
2023-05-02T03:01:20.491Z,12.24
2023-05-02T03:03:49.143Z,12.38
2023-05-02T03:06:18.960Z,12.27
2023-05-02T03:08:46.319Z,12.26
2023-05-02T03:11:12.917Z,12.15
2023-05-02T03:13:39.493Z,12.27
2023-05-02T03:16:32.270Z,12.14
2023-05-02T03:18:59.146Z,12.13
2023-05-02T03:21:25.819Z,12.20
2023-05-02T03:23:52.660Z,12.19
2023-05-02T03:26:19.329Z,12.29
2023-05-02T03:28:48.882Z,12.22
2023-05-02T03:31:15.618Z,12.17
2023-05-02T03:33:42.109Z,12.16
2023-05-02T03:36:08.783Z,12.30
2023-05-02T03:38:35.485Z,12.18
2023-05-02T03:41:03.090Z,12.24
2023-05-02T03:43:30.474Z,12.33
2023-05-02T03:45:57.024Z,12.40
2023-05-02T03:48:23.932Z,12.16
2023-05-02T03:50:51.011Z,12.16
2023-05-02T03:53:17.526Z,11.85
2023-05-02T03:55:44.021Z,11.85
2023-05-02T03:58:11.244Z,11.88
2023-05-02T04:00:38.618Z,12.07
2023-05-02T04:03:05.278Z,11.94
2023-05-02T04:05:31.997Z,12.01
2023-05-02T04:07:58.689Z,11.86
2023-05-02T04:10:25.532Z,12.03
2023-05-02T04:12:52.008Z,11.99
2023-05-02T04:15:18.507Z,11.85
2023-05-02T04:17:45.145Z,11.79
2023-05-02T04:20:11.927Z,12.00
2023-05-02T04:22:41.456Z,12.04
2023-05-02T04:25:08.403Z,12.08
2023-05-02T04:27:34.960Z,12.13
2023-05-02T04:30:01.783Z,12.16
2023-05-02T04:32:28.616Z,12.10
2023-05-02T04:34:55.957Z,12.10
2023-05-02T04:37:23.133Z,12.17
2023-05-02T04:39:50.061Z,12.12
2023-05-02T04:42:16.589Z,12.18
2023-05-02T04:44:43.093Z,12.19
2023-05-02T04:47:09.679Z,12.12
2023-05-02T04:49:36.283Z,12.07
2023-05-02T04:52:03.081Z,12.09
2023-05-02T04:54:29.698Z,12.03
2023-05-02T04:56:56.875Z,12.08
2023-05-02T04:59:24.204Z,12.16
2023-05-02T05:01:50.808Z,12.06
2023-05-02T05:04:17.541Z,12.04
2023-05-02T05:06:44.145Z,12.13
2023-05-02T05:09:10.774Z,12.12
2023-05-02T05:11:38.651Z,12.11
2023-05-02T05:14:05.417Z,12.05
2023-05-02T05:16:32.163Z,12.08
2023-05-02T05:18:58.692Z,12.03
2023-05-02T05:21:25.587Z,11.74
2023-05-02T05:23:52.131Z,11.76
2023-05-02T05:26:18.668Z,11.82
2023-05-02T05:28:45.366Z,11.95
2023-05-02T05:31:15.966Z,11.97
2023-05-02T05:33:43.862Z,12.02
2023-05-02T05:36:12.485Z,12.02
2023-05-02T05:38:39.186Z,12.11
2023-05-02T05:41:07.912Z,12.10
2023-05-02T05:43:36.570Z,12.09
2023-05-02T05:46:04.586Z,12.15
2023-05-02T05:48:31.432Z,12.19
2023-05-02T05:50:57.940Z,12.24
2023-05-02T05:53:24.523Z,12.27
2023-05-02T05:55:51.113Z,12.24
2023-05-02T05:58:17.938Z,12.31
2023-05-02T06:00:44.488Z,12.34
2023-05-02T06:03:11.475Z,12.40
2023-05-02T06:05:38.173Z,12.15
2023-05-02T06:08:04.877Z,12.21
2023-05-02T06:10:32.167Z,12.34
2023-05-02T06:12:59.305Z,12.43
2023-05-02T06:15:25.827Z,12.50
2023-05-02T06:17:52.769Z,12.57
2023-05-02T06:20:19.428Z,12.63
2023-05-02T06:22:46.197Z,12.60
2023-05-02T06:25:12.754Z,12.52
2023-05-02T06:27:39.268Z,12.54
2023-05-02T06:30:06.615Z,12.59
2023-05-02T06:32:33.234Z,12.29
2023-05-02T06:35:00.234Z,12.34
2023-05-02T06:37:26.889Z,12.52
2023-05-02T06:39:53.497Z,12.41
2023-05-02T06:42:20.050Z,12.52
2023-05-02T06:44:46.584Z,12.46
2023-05-02T06:47:13.355Z,12.26
2023-05-02T06:49:39.970Z,12.09
2023-05-02T06:52:06.492Z,12.25
2023-05-02T06:54:33.054Z,12.39
2023-05-02T06:57:00.425Z,12.63
2023-05-02T06:59:26.909Z,12.80
2023-05-02T07:01:53.498Z,12.78
2023-05-02T07:04:20.057Z,12.66
2023-05-02T07:06:47.138Z,12.61
2023-05-02T07:09:13.705Z,12.91
2023-05-02T07:11:40.277Z,12.99
2023-05-02T07:14:06.825Z,13.05
2023-05-02T07:16:33.399Z,12.87
2023-05-02T07:19:00.229Z,13.04
2023-05-02T07:21:26.798Z,13.05
2023-05-02T07:23:55.549Z,13.12
2023-05-02T07:26:23.472Z,13.13
2023-05-02T07:28:50.090Z,13.23
2023-05-02T07:31:18.820Z,13.23
2023-05-02T07:33:45.595Z,13.42
2023-05-02T07:36:12.163Z,13.47
2023-05-02T07:38:38.733Z,13.55
2023-05-02T07:41:05.306Z,13.61
2023-05-02T07:43:32.255Z,13.68
2023-05-02T07:45:58.921Z,13.70
2023-05-02T07:48:27.623Z,13.75
2023-05-02T07:50:54.480Z,13.90
2023-05-02T07:53:20.997Z,13.94
2023-05-02T07:55:47.766Z,13.92
2023-05-02T07:58:14.276Z,13.98
2023-05-02T08:00:40.884Z,13.99
2023-05-02T08:03:07.800Z,14.08
2023-05-02T08:05:34.561Z,14.14
2023-05-02T08:08:01.951Z,14.15
2023-05-02T08:10:28.594Z,14.22
2023-05-02T08:12:55.189Z,14.30
2023-05-02T08:15:21.706Z,14.20
2023-05-02T08:17:48.316Z,14.15
2023-05-02T08:20:14.859Z,14.23
2023-05-02T08:22:41.688Z,14.29
2023-05-02T08:25:08.523Z,14.37
2023-05-02T08:27:35.743Z,14.39
2023-05-02T08:30:02.544Z,14.46
2023-05-02T08:32:30.188Z,14.72
2023-05-02T08:34:59.728Z,14.60
2023-05-02T08:37:26.393Z,14.60
2023-05-02T08:39:52.939Z,14.61
2023-05-02T08:42:20.877Z,14.63
2023-05-02T08:44:49.193Z,14.72
2023-05-02T08:47:18.764Z,14.84
2023-05-02T08:49:46.569Z,14.82
2023-05-02T08:52:14.540Z,14.87
2023-05-02T08:54:41.755Z,14.84
2023-05-02T08:57:08.840Z,14.92
2023-05-02T08:59:35.416Z,15.05
2023-05-02T09:02:17.480Z,15.05
2023-05-02T09:04:49.626Z,15.30
2023-05-02T09:07:16.206Z,15.19
2023-05-02T09:09:42.801Z,15.16
2023-05-02T09:12:10.272Z,15.17
2023-05-02T09:14:36.882Z,15.20
2023-05-02T09:17:03.850Z,15.26
2023-05-02T09:19:31.083Z,15.39
2023-05-02T09:22:01.719Z,15.50
2023-05-02T09:24:29.614Z,15.54
2023-05-02T09:27:04.208Z,15.56
2023-05-02T09:29:36.444Z,15.72
2023-05-02T09:32:04.368Z,15.59
2023-05-02T09:34:31.526Z,15.64
2023-05-02T09:36:58.409Z,15.84
2023-05-02T09:39:26.798Z,16.04
2023-05-02T09:41:53.520Z,15.84
2023-05-02T09:44:22.157Z,15.94
2023-05-02T09:46:49.622Z,16.04
2023-05-02T09:49:19.682Z,16.17
2023-05-02T09:51:47.628Z,16.21
2023-05-02T09:54:15.143Z,16.07
2023-05-02T09:56:56.816Z,16.17
2023-05-02T09:59:24.753Z,16.26
2023-05-02T10:02:12.030Z,16.39
2023-05-02T10:04:39.418Z,16.42
2023-05-02T10:07:10.374Z,16.36
2023-05-02T10:09:40.378Z,16.41
2023-05-02T10:12:08.377Z,16.79
2023-05-02T10:14:53.292Z,16.85
2023-05-02T10:17:31.086Z,16.68
2023-05-02T10:20:01.473Z,16.65
2023-05-02T10:22:28.608Z,16.72
2023-05-02T10:24:58.061Z,17.10
2023-05-02T10:27:25.723Z,16.95
2023-05-02T10:29:52.897Z,16.73
2023-05-02T10:32:22.630Z,16.64
2023-05-02T10:34:51.810Z,16.72
2023-05-02T10:37:19.352Z,16.73
2023-05-02T10:39:46.155Z,16.99
2023-05-02T10:42:14.628Z,17.12
2023-05-02T10:44:41.585Z,17.23
2023-05-02T10:47:27.185Z,17.25
2023-05-02T10:50:01.927Z,17.22
2023-05-02T10:52:35.550Z,17.22
2023-05-02T10:55:22.517Z,17.23
2023-05-02T10:57:58.386Z,17.56
2023-05-02T11:00:29.531Z,17.50
2023-05-02T11:02:56.769Z,17.65
2023-05-02T11:05:24.657Z,17.75
2023-05-02T11:08:19.345Z,17.80
2023-05-02T11:10:47.315Z,17.68
2023-05-02T11:13:13.932Z,17.75
2023-05-02T11:15:40.468Z,17.62
2023-05-02T11:18:12.714Z,17.95
2023-05-02T11:20:43.649Z,17.86
2023-05-02T11:23:16.846Z,17.95
2023-05-02T11:25:45.889Z,17.67
2023-05-02T11:28:37.193Z,17.61
2023-05-02T11:31:08.628Z,17.91
2023-05-02T11:33:35.132Z,18.11
2023-05-02T11:36:01.801Z,18.30
2023-05-02T11:38:36.748Z,18.50
2023-05-02T11:41:04.368Z,18.45
2023-05-02T11:43:32.140Z,18.56
2023-05-02T11:46:00.761Z,18.24
2023-05-02T11:48:27.831Z,18.05
2023-05-02T11:50:58.413Z,18.28
2023-05-02T11:53:28.892Z,18.58
2023-05-02T11:55:57.468Z,18.77
2023-05-02T11:58:26.755Z,18.37
2023-05-02T12:00:53.939Z,18.32
2023-05-02T12:03:22.621Z,18.27
2023-05-02T12:05:50.109Z,18.25
2023-05-02T12:08:27.932Z,18.67
2023-05-02T12:10:56.060Z,18.91
2023-05-02T12:13:24.944Z,19.09
2023-05-02T12:15:53.285Z,18.93
2023-05-02T12:18:25.181Z,19.07
2023-05-02T12:20:52.847Z,18.98
2023-05-02T12:23:24.567Z,18.74
2023-05-02T12:25:51.055Z,18.82
2023-05-02T12:28:20.031Z,19.20
2023-05-02T12:30:51.328Z,19.13
2023-05-02T12:47:45.119Z,19.04
2023-05-02T12:50:11.819Z,19.32
2023-05-02T12:52:49.777Z,19.72
2023-05-02T12:55:21.345Z,19.57
2023-05-02T12:57:48.438Z,19.62
2023-05-02T13:00:18.329Z,19.70
2023-05-02T13:02:44.903Z,19.33
2023-05-02T13:05:15.648Z,19.55
2023-05-02T13:07:42.210Z,19.46
2023-05-02T13:10:09.606Z,19.65
2023-05-02T13:12:38.292Z,19.32
2023-05-02T13:15:06.609Z,19.38
2023-05-02T13:17:34.188Z,19.38
2023-05-02T13:20:02.420Z,19.20
2023-05-02T13:22:29.438Z,19.30
2023-05-02T13:24:56.034Z,19.51
2023-05-02T13:27:26.120Z,19.51
2023-05-02T13:29:52.714Z,19.76
2023-05-02T13:32:19.763Z,19.77
2023-05-02T13:34:46.400Z,20.00
2023-05-02T13:37:13.218Z,19.54
2023-05-02T13:39:39.919Z,19.30
2023-05-02T13:42:06.730Z,19.21
2023-05-02T13:44:33.491Z,19.23
2023-05-02T13:47:00.090Z,19.35
2023-05-02T13:49:26.978Z,19.30
2023-05-02T13:51:53.725Z,19.44
2023-05-02T13:54:20.890Z,19.34
2023-05-02T13:56:47.455Z,19.75
2023-05-02T13:59:14.322Z,19.74
2023-05-02T14:01:41.193Z,19.98
2023-05-02T14:04:09.002Z,19.93
2023-05-02T14:06:36.151Z,19.96
2023-05-02T14:09:03.878Z,19.98
2023-05-02T14:11:30.768Z,19.82
2023-05-02T14:13:58.360Z,19.85
2023-05-02T14:16:25.185Z,19.67
2023-05-02T14:18:51.755Z,20.17
2023-05-02T14:21:18.365Z,20.06
2023-05-02T14:23:44.902Z,19.56
2023-05-02T14:26:11.508Z,19.78
2023-05-02T14:28:39.054Z,19.72
2023-05-02T14:31:07.866Z,19.87
2023-05-02T14:33:34.549Z,20.03
2023-05-02T14:36:01.401Z,20.14
2023-05-02T14:38:27.930Z,19.80
2023-05-02T14:40:55.134Z,19.76
2023-05-02T14:43:21.740Z,20.05
2023-05-02T14:45:48.330Z,20.15
2023-05-02T14:48:17.038Z,20.31
2023-05-02T14:50:44.196Z,20.22
2023-05-02T14:53:11.876Z,20.19
2023-05-02T14:55:39.983Z,20.14
2023-05-02T14:58:08.993Z,20.50
2023-05-02T15:00:37.944Z,20.54
2023-05-02T15:03:07.670Z,20.26
2023-05-02T15:05:36.713Z,20.66
2023-05-02T15:08:03.272Z,20.38
2023-05-02T15:10:29.762Z,20.81
2023-05-02T15:12:56.500Z,20.65
2023-05-02T15:15:25.141Z,20.88
2023-05-02T15:17:52.907Z,21.05
2023-05-02T15:20:19.934Z,21.42
2023-05-02T15:22:46.506Z,21.81
2023-05-02T15:25:13.035Z,21.77
2023-05-02T15:27:39.972Z,22.16
2023-05-02T15:30:07.420Z,22.29
2023-05-02T15:32:34.061Z,22.22
2023-05-02T15:35:00.831Z,22.45
2023-05-02T15:37:27.498Z,22.70
2023-05-02T15:39:54.085Z,22.93
2023-05-02T15:42:20.724Z,22.80
2023-05-02T15:44:47.235Z,22.54
2023-05-02T15:47:13.828Z,22.91
2023-05-02T15:49:41.155Z,23.04
2023-05-02T15:52:07.751Z,23.20
2023-05-02T15:54:34.521Z,23.16
2023-05-02T15:57:02.539Z,23.36
2023-05-02T15:59:29.289Z,23.34
2023-05-02T16:01:56.254Z,23.33
2023-05-02T16:04:22.957Z,23.15
2023-05-02T16:06:49.838Z,23.26
2023-05-02T16:09:16.558Z,23.01
2023-05-02T16:11:44.444Z,23.27
2023-05-02T16:14:11.319Z,23.27
2023-05-02T16:16:37.985Z,23.58
2023-05-02T16:19:04.703Z,23.17
2023-05-02T16:21:31.720Z,23.96
2023-05-02T16:23:58.350Z,23.81
2023-05-02T16:26:24.841Z,23.24
2023-05-02T16:28:51.752Z,23.64
2023-05-02T16:31:18.345Z,23.26
2023-05-02T16:33:44.949Z,23.57
2023-05-02T16:36:11.618Z,24.03
2023-05-02T16:38:38.186Z,23.74
2023-05-02T16:41:07.098Z,23.74
2023-05-02T16:43:33.862Z,23.87
2023-05-02T16:46:05.162Z,24.08
2023-05-02T16:48:32.277Z,24.26
2023-05-02T16:51:01.076Z,23.99
2023-05-02T16:53:30.551Z,24.24
2023-05-02T16:55:57.279Z,24.37
2023-05-02T16:58:25.048Z,24.00
2023-05-02T17:00:52.008Z,24.03
2023-05-02T17:03:18.819Z,24.24
2023-05-02T17:05:45.745Z,24.06
2023-05-02T17:08:12.350Z,23.90
2023-05-02T17:10:39.050Z,23.94
2023-05-02T17:13:06.668Z,23.74
2023-05-02T17:15:38.497Z,23.47
2023-05-02T17:18:05.322Z,23.51
2023-05-02T17:20:32.296Z,23.33
2023-05-02T17:23:00.641Z,23.51
2023-05-02T17:25:27.218Z,23.83
2023-05-02T17:27:53.896Z,23.72
2023-05-02T17:30:20.528Z,23.92
2023-05-02T17:32:48.038Z,23.79
2023-05-02T17:35:14.716Z,23.82
2023-05-02T17:37:41.393Z,23.46
2023-05-02T17:40:08.565Z,23.27
2023-05-02T17:42:35.329Z,23.36
2023-05-02T17:45:02.553Z,23.64
2023-05-02T17:47:29.260Z,23.85
2023-05-02T17:49:55.986Z,23.68
2023-05-02T17:52:22.697Z,24.19
2023-05-02T17:54:52.200Z,23.74
2023-05-02T17:57:19.712Z,23.29
2023-05-02T17:59:46.353Z,23.05
2023-05-02T18:02:12.905Z,22.85
2023-05-02T18:04:39.413Z,22.56
2023-05-02T18:07:06.350Z,22.40
2023-05-02T18:09:33.001Z,22.30
2023-05-02T18:12:04.316Z,22.21
2023-05-02T18:14:30.994Z,22.23
2023-05-02T18:16:57.730Z,22.04
2023-05-02T18:19:24.372Z,21.92
2023-05-02T18:21:51.111Z,21.86
2023-05-02T18:24:17.716Z,21.67
2023-05-02T18:26:44.364Z,21.64
2023-05-02T18:29:10.836Z,21.59
2023-05-02T18:31:40.309Z,21.42
2023-05-02T18:34:07.063Z,21.41
2023-05-02T18:36:33.691Z,21.44
2023-05-02T18:39:00.420Z,21.31
2023-05-02T18:41:27.009Z,21.20
2023-05-02T18:43:54.606Z,21.10
2023-05-02T18:46:21.913Z,21.00
2023-05-02T18:48:48.999Z,20.81
2023-05-02T18:51:15.882Z,20.74
2023-05-02T18:53:42.400Z,20.62
2023-05-02T18:56:13.825Z,20.57
2023-05-02T18:58:41.593Z,20.49
2023-05-02T19:01:15.255Z,20.37
2023-05-02T19:03:45.630Z,20.28
2023-05-02T19:06:13.290Z,20.20
2023-05-02T19:08:42.986Z,20.07
2023-05-02T19:11:09.750Z,19.93
2023-05-02T19:13:36.331Z,19.83
2023-05-02T19:16:03.126Z,19.75
2023-05-02T19:18:29.707Z,19.68
2023-05-02T19:20:57.270Z,19.62
2023-05-02T19:23:24.549Z,19.55
2023-05-02T19:25:51.147Z,19.56
2023-05-02T19:28:17.755Z,19.50
2023-05-02T19:30:44.739Z,19.47
2023-05-02T19:33:11.770Z,19.42
2023-05-02T19:35:38.754Z,19.37
2023-05-02T19:38:05.359Z,19.34
2023-05-02T19:40:31.917Z,19.24
2023-05-02T19:42:58.414Z,19.23
2023-05-02T19:45:25.559Z,19.17
2023-05-02T19:47:52.659Z,19.12
2023-05-02T19:50:19.339Z,19.01
2023-05-02T19:52:45.941Z,18.96
2023-05-02T19:55:13.181Z,18.90
2023-05-02T19:57:40.852Z,18.87
2023-05-02T20:00:08.328Z,18.82
2023-05-02T20:02:35.043Z,18.77
2023-05-02T20:05:01.688Z,18.73
2023-05-02T20:07:28.425Z,18.70
2023-05-02T20:09:54.934Z,18.62
2023-05-02T20:12:21.450Z,18.62
2023-05-02T20:14:48.000Z,18.55
2023-05-02T20:17:14.562Z,18.49
2023-05-02T20:19:41.063Z,18.45
2023-05-02T20:22:07.843Z,18.44
2023-05-02T20:24:34.344Z,18.44
2023-05-02T20:27:01.314Z,18.39
2023-05-02T20:29:28.456Z,18.33
2023-05-02T20:31:56.541Z,18.29
2023-05-02T20:34:23.551Z,18.22
2023-05-02T20:36:50.224Z,18.21
2023-05-02T20:39:20.391Z,18.19
2023-05-02T20:41:49.607Z,18.22
2023-05-02T20:44:22.420Z,18.26
2023-05-02T20:46:49.181Z,18.24
2023-05-02T20:49:15.702Z,18.15
2023-05-02T20:51:42.256Z,18.14
2023-05-02T20:54:08.798Z,18.04
2023-05-02T20:56:35.466Z,18.01
2023-05-02T20:59:01.965Z,17.97
2023-05-02T21:01:28.819Z,17.93
2023-05-02T21:03:57.189Z,17.82
2023-05-02T21:06:24.110Z,17.81
2023-05-02T21:08:51.098Z,17.77
2023-05-02T21:11:17.655Z,17.71
2023-05-02T21:13:44.203Z,17.71
2023-05-02T21:16:17.995Z,17.62
2023-05-02T21:18:45.281Z,17.58
2023-05-02T21:21:11.932Z,17.53
2023-05-02T21:23:38.931Z,17.47
2023-05-02T21:26:06.142Z,17.42
2023-05-02T21:28:32.637Z,17.35
2023-05-02T21:31:01.699Z,17.35
2023-05-02T21:33:28.249Z,17.35
2023-05-02T21:35:58.392Z,17.35
2023-05-02T21:38:26.036Z,17.30
2023-05-02T21:40:53.296Z,17.25
2023-05-02T21:43:19.999Z,17.24
2023-05-02T21:45:47.919Z,17.24
2023-05-02T21:48:15.259Z,17.22
2023-05-02T21:50:43.253Z,17.26
2023-05-02T21:53:10.708Z,17.20
2023-05-02T21:55:39.165Z,17.11
2023-05-02T21:58:07.398Z,17.11
2023-05-02T22:00:34.038Z,17.10
2023-05-02T22:03:07.785Z,17.03
2023-05-02T22:05:41.870Z,16.99
2023-05-02T22:08:10.057Z,16.99
2023-05-02T22:10:41.862Z,16.92
2023-05-02T22:13:12.209Z,16.91
2023-05-02T22:15:47.786Z,16.85
2023-05-02T22:18:16.804Z,16.82
2023-05-02T22:20:45.060Z,16.78
2023-05-02T22:23:12.306Z,16.74
2023-05-02T22:25:44.337Z,16.77
2023-05-02T22:28:11.476Z,16.75
2023-05-02T22:30:39.157Z,16.70
2023-05-02T22:33:07.410Z,16.66
2023-05-02T22:35:34.402Z,16.63
2023-05-02T22:38:02.198Z,16.65
2023-05-02T22:40:31.452Z,16.59
2023-05-02T22:42:58.938Z,16.14
2023-05-02T22:45:26.951Z,15.91
2023-05-02T22:47:53.778Z,15.72
2023-05-02T22:50:21.463Z,15.70
2023-05-02T22:52:49.002Z,15.74
2023-05-02T22:55:15.724Z,15.67
2023-05-02T22:57:42.800Z,15.69
2023-05-02T23:00:10.646Z,15.62
2023-05-02T23:02:37.638Z,15.75
2023-05-02T23:05:04.650Z,15.81
2023-05-02T23:07:31.200Z,15.70
2023-05-02T23:09:57.731Z,15.76
2023-05-02T23:12:24.321Z,15.76
2023-05-02T23:14:50.901Z,15.72
2023-05-02T23:17:17.531Z,15.74
2023-05-02T23:19:44.105Z,15.77
2023-05-02T23:22:10.670Z,15.83
2023-05-02T23:24:37.235Z,15.72
2023-05-02T23:27:03.836Z,15.77
2023-05-02T23:29:30.396Z,15.70
2023-05-02T23:31:57.066Z,15.75
2023-05-02T23:34:23.839Z,15.67
2023-05-02T23:36:51.849Z,15.69
2023-05-02T23:39:18.713Z,15.73
2023-05-02T23:41:45.319Z,15.67
2023-05-02T23:44:11.876Z,15.67
2023-05-02T23:46:39.077Z,15.64
2023-05-02T23:49:05.676Z,15.64
2023-05-02T23:51:32.287Z,15.61
2023-05-02T23:53:58.928Z,15.47
2023-05-02T23:56:26.122Z,15.38
2023-05-02T23:58:52.686Z,15.40
